createdAt,value
2018-11-29T00:00:00.921Z,98307.00
2018-11-29T00:04:03.381Z,98303.00
2018-11-29T00:08:05.855Z,98305.00
2018-11-29T00:12:08.334Z,98307.00
2018-11-29T00:16:10.717Z,98296.00
2018-11-29T00:20:16.051Z,98287.00
2018-11-29T00:24:18.408Z,98292.00
2018-11-29T00:28:20.745Z,98289.00
2018-11-29T00:32:23.125Z,98284.00
2018-11-29T00:36:25.482Z,98271.00
2018-11-29T00:40:27.870Z,98279.00
2018-11-29T00:44:30.395Z,98282.00
2018-11-29T00:48:32.741Z,98281.00
2018-11-29T00:52:35.356Z,98280.00
2018-11-29T00:56:37.750Z,98266.00
2018-11-29T01:00:40.273Z,98280.00
2018-11-29T01:04:42.891Z,98284.00
2018-11-29T01:08:45.327Z,98282.00
2018-11-29T01:12:48.317Z,98271.00
2018-11-29T01:16:50.731Z,98258.00
2018-11-29T01:20:53.086Z,98266.00
2018-11-29T01:24:55.437Z,98260.00
2018-11-29T01:28:57.751Z,98250.00
2018-11-29T01:33:00.157Z,98252.00
2018-11-29T01:37:02.542Z,98238.00
2018-11-29T01:41:05.008Z,98257.00
2018-11-29T01:45:07.382Z,98272.00
2018-11-29T01:49:09.715Z,98262.00
2018-11-29T01:53:12.062Z,98285.00
2018-11-29T01:57:14.370Z,98284.00
2018-11-29T02:01:16.792Z,98293.00
2018-11-29T02:05:19.171Z,98279.00
2018-11-29T02:09:21.533Z,98263.00
2018-11-29T02:13:23.900Z,98272.00
2018-11-29T02:17:26.228Z,98268.00
2018-11-29T02:21:28.600Z,98280.00
2018-11-29T02:25:30.965Z,98267.00
2018-11-29T02:29:33.316Z,98273.00
2018-11-29T02:33:35.710Z,98285.00
2018-11-29T02:37:38.062Z,98270.00
2018-11-29T02:41:40.422Z,98275.00
2018-11-29T02:45:42.770Z,98254.00
2018-11-29T02:49:45.159Z,98250.00
2018-11-29T02:53:47.547Z,98240.00
2018-11-29T02:57:50.182Z,98239.00
2018-11-29T03:01:52.609Z,98228.00
2018-11-29T03:05:54.969Z,98209.00
2018-11-29T03:09:57.397Z,98185.00
2018-11-29T03:13:59.776Z,98180.00
2018-11-29T03:18:02.107Z,98181.00
2018-11-29T03:22:04.620Z,98190.00
2018-11-29T03:26:06.971Z,98178.00
2018-11-29T03:30:18.702Z,98152.00
2018-11-29T03:34:21.099Z,98155.00
2018-11-29T03:38:23.460Z,98168.00
2018-11-29T03:42:25.842Z,98166.00
2018-11-29T03:46:28.131Z,98174.00
2018-11-29T03:50:30.498Z,98024.00
2018-11-29T03:54:32.846Z,98176.00
2018-11-29T03:58:35.311Z,98169.00
2018-11-29T04:02:37.639Z,98178.00
2018-11-29T04:06:39.995Z,98185.00
2018-11-29T04:10:42.386Z,98195.00
2018-11-29T04:14:44.761Z,98206.00
2018-11-29T04:18:47.146Z,98207.00
2018-11-29T04:22:49.545Z,98214.00
2018-11-29T04:26:51.907Z,98195.00
2018-11-29T04:30:54.256Z,98193.00
2018-11-29T04:34:56.834Z,98202.00
2018-11-29T04:38:59.174Z,98202.00
2018-11-29T04:43:01.555Z,98200.00
2018-11-29T04:47:03.942Z,98201.00
2018-11-29T04:51:05.954Z,98209.00
2018-11-29T04:55:09.179Z,98205.00
2018-11-29T04:59:11.615Z,98209.00
2018-11-29T05:03:13.996Z,98227.00
2018-11-29T05:07:16.374Z,98198.00
2018-11-29T05:11:18.720Z,98194.00
2018-11-29T05:15:21.050Z,98186.00
2018-11-29T05:19:23.432Z,98177.00
2018-11-29T05:23:25.774Z,98178.00
2018-11-29T05:27:28.134Z,98167.00
2018-11-29T05:31:30.454Z,98151.00
2018-11-29T05:35:32.856Z,98140.00
2018-11-29T05:39:35.155Z,98139.00
2018-11-29T05:43:37.523Z,98139.00
2018-11-29T05:47:39.834Z,98144.00
2018-11-29T05:51:42.200Z,98141.00
2018-11-29T05:55:44.550Z,98153.00
2018-11-29T05:59:46.903Z,98157.00
2018-11-29T06:03:49.239Z,98161.00
2018-11-29T06:07:51.583Z,98160.00
2018-11-29T06:11:53.881Z,98141.00
2018-11-29T06:15:56.199Z,98151.00
2018-11-29T06:19:58.510Z,98139.00
2018-11-29T06:24:00.792Z,98143.00
2018-11-29T06:28:03.203Z,98153.00
2018-11-29T06:32:05.660Z,98147.00
2018-11-29T06:36:08.221Z,98141.00
2018-11-29T06:40:12.313Z,98143.00
2018-11-29T06:44:14.654Z,98144.00
2018-11-29T06:48:16.990Z,98133.00
2018-11-29T06:52:19.250Z,98127.00
2018-11-29T06:56:21.612Z,98123.00
2018-11-29T07:00:31.557Z,98108.00
2018-11-29T07:04:33.895Z,98120.00
2018-11-29T07:08:36.255Z,98117.00
2018-11-29T07:12:39.518Z,98124.00
2018-11-29T07:16:41.888Z,98108.00
2018-11-29T07:20:54.322Z,98101.00
2018-11-29T07:24:56.623Z,98105.00
2018-11-29T07:28:58.960Z,98115.00
2018-11-29T07:33:01.343Z,98106.00
2018-11-29T07:37:03.695Z,98101.00
2018-11-29T07:41:06.144Z,98096.00
2018-11-29T07:45:13.213Z,98100.00
2018-11-29T07:49:15.554Z,98112.00
2018-11-29T07:53:17.897Z,98099.00
2018-11-29T07:57:20.224Z,98110.00
2018-11-29T08:01:22.684Z,98108.00
2018-11-29T08:05:25.102Z,98114.00
2018-11-29T08:09:27.474Z,98111.00
2018-11-29T08:13:29.782Z,98107.00
2018-11-29T08:17:32.122Z,98096.00
2018-11-29T08:21:34.543Z,98087.00
2018-11-29T08:25:36.872Z,98088.00
2018-11-29T08:29:39.202Z,98100.00
2018-11-29T08:33:41.569Z,98092.00
2018-11-29T08:37:45.102Z,98074.00
2018-11-29T08:41:47.491Z,98065.00
2018-11-29T08:45:49.833Z,98079.00
2018-11-29T08:49:52.179Z,98069.00
2018-11-29T08:53:54.538Z,98074.00
2018-11-29T08:57:56.894Z,98069.00
2018-11-29T09:01:59.364Z,98071.00
2018-11-29T09:06:01.718Z,98089.00
2018-11-29T09:10:06.024Z,98074.00
2018-11-29T09:14:08.401Z,98083.00
2018-11-29T09:18:10.766Z,98082.00
2018-11-29T09:22:13.119Z,98078.00
2018-11-29T09:26:15.502Z,98082.00
2018-11-29T09:30:20.598Z,98088.00
2018-11-29T09:34:22.951Z,98078.00
2018-11-29T09:38:25.288Z,98091.00
2018-11-29T09:42:27.663Z,98068.00
2018-11-29T09:46:30.036Z,98062.00
2018-11-29T09:50:32.358Z,98060.00
2018-11-29T09:54:34.737Z,98072.00
2018-11-29T09:58:37.098Z,98058.00
2018-11-29T10:02:39.486Z,98071.00
2018-11-29T10:06:41.822Z,98075.00
2018-11-29T10:10:44.186Z,98069.00
2018-11-29T10:14:46.553Z,98065.00
2018-11-29T10:18:48.861Z,98065.00
2018-11-29T10:22:51.242Z,98069.00
2018-11-29T10:26:53.661Z,98056.00
2018-11-29T10:30:57.481Z,98059.00
2018-11-29T10:34:59.783Z,98053.00
2018-11-29T10:39:02.246Z,98040.00
2018-11-29T10:43:04.713Z,98048.00
2018-11-29T10:47:07.073Z,98046.00
2018-11-29T10:51:09.398Z,98036.00
2018-11-29T10:55:15.710Z,98027.00
2018-11-29T10:59:18.043Z,98017.00
2018-11-29T11:03:20.942Z,98027.00
2018-11-29T11:07:23.292Z,98014.00
2018-11-29T11:11:25.711Z,98013.00
2018-11-29T11:15:28.142Z,98013.00
2018-11-29T11:19:30.469Z,98007.00
2018-11-29T11:23:32.803Z,98028.00
2018-11-29T11:27:35.156Z,98021.00
2018-11-29T11:31:37.523Z,98013.00
2018-11-29T11:35:39.875Z,98004.00
2018-11-29T11:39:42.540Z,98008.00
2018-11-29T11:43:44.626Z,97994.00
2018-11-29T11:47:47.077Z,97989.00
2018-11-29T11:51:49.397Z,97981.00
2018-11-29T11:55:53.705Z,97971.00
2018-11-29T11:59:54.023Z,97965.00
2018-11-29T12:03:56.395Z,97974.00
2018-11-29T12:07:58.777Z,97964.00
2018-11-29T12:12:01.226Z,97941.00
2018-11-29T12:16:03.803Z,97946.00
2018-11-29T12:20:09.363Z,97949.00
2018-11-29T12:24:11.726Z,97931.00
2018-11-29T12:28:14.071Z,97920.00
2018-11-29T12:32:16.346Z,97931.00
2018-11-29T12:36:18.706Z,97926.00
2018-11-29T12:40:21.087Z,97910.00
2018-11-29T12:44:23.440Z,97905.00
2018-11-29T12:48:25.787Z,97896.00
2018-11-29T12:52:28.146Z,97888.00
2018-11-29T12:56:30.548Z,97882.00
2018-11-29T13:00:32.946Z,97873.00
2018-11-29T13:04:35.596Z,97864.00
2018-11-29T13:08:38.188Z,97856.00
2018-11-29T13:12:40.606Z,97868.00
2018-11-29T13:16:42.944Z,97873.00
2018-11-29T13:20:45.266Z,97861.00
2018-11-29T13:24:47.681Z,97817.00
2018-11-29T13:28:50.049Z,97822.00
2018-11-29T13:32:54.472Z,97815.00
2018-11-29T13:36:56.868Z,97775.00
2018-11-29T13:40:59.226Z,97777.00
2018-11-29T13:45:01.625Z,97855.00
2018-11-29T13:49:04.616Z,97894.00
2018-11-29T13:53:07.071Z,97900.00
2018-11-29T13:57:09.427Z,97908.00
2018-11-29T14:01:11.773Z,97898.00
2018-11-29T14:05:14.279Z,97875.00
2018-11-29T14:09:16.687Z,97859.00
2018-11-29T14:13:19.059Z,97832.00
2018-11-29T14:17:21.432Z,97811.00
2018-11-29T14:21:23.836Z,97803.00
2018-11-29T14:25:26.261Z,97815.00
2018-11-29T14:29:28.650Z,97776.00
2018-11-29T14:33:30.991Z,97770.00
2018-11-29T14:37:33.386Z,97732.00
2018-11-29T14:41:35.714Z,97794.00
2018-11-29T14:45:38.613Z,97777.00
2018-11-29T14:49:41.806Z,97778.00
2018-11-29T14:53:44.496Z,97677.00
2018-11-29T14:57:46.897Z,97849.00
2018-11-29T15:01:49.296Z,97815.00
2018-11-29T15:05:51.654Z,97851.00
2018-11-29T15:09:54.103Z,97854.00
2018-11-29T15:13:56.574Z,97855.00
2018-11-29T15:17:58.907Z,97852.00
2018-11-29T15:22:01.376Z,97827.00
2018-11-29T15:26:03.795Z,97798.00
2018-11-29T15:30:10.900Z,97767.00
2018-11-29T15:34:13.214Z,97768.00
2018-11-29T15:38:15.560Z,97778.00
2018-11-29T15:42:17.990Z,97773.00
2018-11-29T15:46:20.362Z,97782.00
2018-11-29T15:50:22.715Z,97747.00
2018-11-29T15:54:25.094Z,97743.00
2018-11-29T15:58:27.541Z,97738.00
2018-11-29T16:02:30.042Z,97727.00
2018-11-29T16:06:32.419Z,97733.00
2018-11-29T16:10:34.829Z,97731.00
2018-11-29T16:14:37.137Z,97714.00
2018-11-29T16:18:39.564Z,97711.00
2018-11-29T16:22:41.938Z,97716.00
2018-11-29T16:26:44.400Z,97718.00
2018-11-29T16:30:48.753Z,97714.00
2018-11-29T16:34:51.149Z,97704.00
2018-11-29T16:38:53.546Z,97704.00
2018-11-29T16:42:55.930Z,97715.00
2018-11-29T16:46:58.288Z,97705.00
2018-11-29T16:51:00.714Z,97692.00
2018-11-29T16:55:03.259Z,97719.00
2018-11-29T16:59:05.860Z,97718.00
2018-11-29T17:03:08.328Z,97713.00
2018-11-29T17:07:10.719Z,97719.00
2018-11-29T17:11:13.200Z,97710.00
2018-11-29T17:15:17.685Z,97714.00
2018-11-29T17:19:20.082Z,97701.00
2018-11-29T17:23:22.484Z,97717.00
2018-11-29T17:27:24.892Z,97719.00
2018-11-29T17:31:27.305Z,97710.00
2018-11-29T17:35:29.650Z,97720.00
2018-11-29T17:39:32.069Z,97702.00
2018-11-29T17:43:34.700Z,97699.00
2018-11-29T17:47:37.179Z,97701.00
2018-11-29T17:51:39.600Z,97683.00
2018-11-29T17:55:42.088Z,97681.00
2018-11-29T17:59:44.383Z,97697.00
2018-11-29T18:03:46.924Z,97718.00
2018-11-29T18:07:49.348Z,97712.00
2018-11-29T18:11:51.722Z,97735.00
2018-11-29T18:15:54.059Z,97728.00
2018-11-29T18:19:56.475Z,97741.00
2018-11-29T18:23:58.967Z,97745.00
2018-11-29T18:28:01.537Z,97730.00
2018-11-29T18:32:03.938Z,97741.00
2018-11-29T18:36:06.385Z,97718.00
2018-11-29T18:40:12.037Z,97735.00
2018-11-29T18:44:14.349Z,97744.00
2018-11-29T18:48:16.804Z,97732.00
2018-11-29T18:52:19.156Z,97717.00
2018-11-29T18:56:21.618Z,97712.00
2018-11-29T19:00:26.102Z,97697.00
2018-11-29T19:04:28.446Z,97701.00
2018-11-29T19:08:30.828Z,97697.00
2018-11-29T19:12:33.392Z,97687.00
2018-11-29T19:16:35.803Z,97682.00
2018-11-29T19:20:38.516Z,97689.00
2018-11-29T19:24:40.706Z,97683.00
2018-11-29T19:28:43.138Z,97692.00
2018-11-29T19:32:47.401Z,97693.00
2018-11-29T19:36:49.815Z,97700.00
2018-11-29T19:40:52.271Z,97688.00
2018-11-29T19:44:54.963Z,97715.00
2018-11-29T19:48:57.407Z,97698.00
2018-11-29T19:53:00.718Z,97686.00
2018-11-29T19:57:03.123Z,97673.00
2018-11-29T20:01:05.612Z,97686.00
2018-11-29T20:05:09.441Z,97670.00
2018-11-29T20:09:11.957Z,97687.00
2018-11-29T20:13:14.898Z,97691.00
2018-11-29T20:17:17.252Z,97674.00
2018-11-29T20:21:19.663Z,97674.00
2018-11-29T20:25:23.417Z,97698.00
2018-11-29T20:29:25.912Z,97713.00
2018-11-29T20:33:28.397Z,97714.00
2018-11-29T20:37:30.937Z,97714.00
2018-11-29T20:41:33.354Z,97705.00
2018-11-29T20:45:40.400Z,97704.00
2018-11-29T20:49:42.820Z,97702.00
2018-11-29T20:53:45.238Z,97703.00
2018-11-29T20:57:47.623Z,97707.00
2018-11-29T21:01:50.067Z,97699.00
2018-11-29T21:05:52.556Z,97689.00
2018-11-29T21:09:55.435Z,97680.00
2018-11-29T21:13:58.376Z,97689.00
2018-11-29T21:18:00.790Z,97688.00
2018-11-29T21:22:03.253Z,97689.00
2018-11-29T21:26:05.796Z,97690.00
2018-11-29T21:30:10.371Z,97680.00
2018-11-29T21:34:13.405Z,97674.00
2018-11-29T21:38:17.959Z,97670.00
2018-11-29T21:42:20.410Z,97670.00
2018-11-29T21:46:22.796Z,97674.00
2018-11-29T21:50:25.186Z,97663.00
2018-11-29T21:54:27.526Z,97665.00
2018-11-29T21:58:29.955Z,97654.00
2018-11-29T22:02:32.319Z,97660.00
2018-11-29T22:06:34.686Z,97650.00
2018-11-29T22:10:37.048Z,97632.00
2018-11-29T22:14:39.381Z,97625.00
2018-11-29T22:18:41.816Z,97620.00
2018-11-29T22:22:44.195Z,97640.00
2018-11-29T22:26:46.535Z,97636.00
2018-11-29T22:30:48.939Z,97632.00
2018-11-29T22:34:51.315Z,97626.00
2018-11-29T22:38:53.674Z,97626.00
2018-11-29T22:42:56.054Z,97614.00
2018-11-29T22:46:58.435Z,97613.00
2018-11-29T22:51:00.764Z,97606.00
2018-11-29T22:55:03.269Z,97606.00
2018-11-29T22:59:05.656Z,97619.00
2018-11-29T23:03:08.040Z,97630.00
2018-11-29T23:07:10.371Z,97633.00
2018-11-29T23:11:12.772Z,97651.00
2018-11-29T23:15:15.209Z,97670.00
2018-11-29T23:19:17.554Z,97636.00
2018-11-29T23:23:19.926Z,97630.00
2018-11-29T23:27:22.369Z,97625.00
2018-11-29T23:31:24.704Z,97630.00
2018-11-29T23:35:27.096Z,97641.00
2018-11-29T23:39:29.455Z,97626.00
2018-11-29T23:43:31.764Z,97630.00
2018-11-29T23:47:34.116Z,97628.00
2018-11-29T23:51:36.422Z,97616.00
2018-11-29T23:55:38.777Z,97629.00
2018-11-29T23:59:41.098Z,97626.00
